Time;durP1;ratioP1;P1;durP2;ratioP2;P2;SDS_P1;SDS_P2;PMS_P1;PMS_P2;Temp;Humidity;BMP_temperature;BMP_pressure;BME280_temperature;BME280_humidity;BME280_pressure;Samples;Min_cycle;Max_cycle;Signal;HPM_P1;HPM_P2
2023/10/07 00:00:47;;;;;;;4.57;2.33;;;10.80;99.90;;;10.08;100.00;102198.84;4203572;28;20060;-78
2023/10/07 00:02:48;;;;;;;3.85;2.30;;;10.80;99.90;;;10.09;100.00;102203.19;4202689;28;20446;-79
2023/10/07 00:04:48;;;;;;;6.68;2.30;;;10.80;99.90;;;10.07;100.00;102208.56;4202654;28;20025;-79
2023/10/07 00:06:49;;;;;;;4.07;2.55;;;10.80;99.90;;;10.06;100.00;102200.78;4202849;28;20051;-79
2023/10/07 00:08:50;;;;;;;5.60;2.38;;;10.80;99.90;;;10.03;100.00;102207.94;4191746;28;20050;-79
2023/10/07 00:10:51;;;;;;;7.70;2.63;;;10.80;99.90;;;10.00;100.00;102197.63;4203924;28;20028;-79
2023/10/07 00:12:52;;;;;;;5.30;2.28;;;10.80;99.90;;;10.00;100.00;102202.09;4203361;28;20032;-78
2023/10/07 00:14:53;;;;;;;3.75;2.55;;;10.70;99.90;;;9.97;100.00;102207.59;4202172;28;20024;-78
2023/10/07 00:16:54;;;;;;;3.67;2.42;;;10.70;99.90;;;9.94;100.00;102211.31;4200758;28;20029;-79
2023/10/07 00:18:55;;;;;;;5.63;2.70;;;10.70;99.90;;;9.92;100.00;102209.72;4203840;28;20025;-78
2023/10/07 00:20:56;;;;;;;8.60;2.67;;;10.60;99.90;;;9.87;100.00;102202.16;4203674;28;20022;-79
2023/10/07 00:23:00;;;;;;;5.60;2.38;;;10.60;99.90;;;9.84;100.00;102207.66;4202501;28;20577;-79
2023/10/07 00:25:02;;;;;;;5.40;2.60;;;10.60;99.90;;;9.82;100.00;102209.59;4190721;28;20063;-78
2023/10/07 00:27:05;;;;;;;4.18;2.05;;;10.50;99.90;;;9.78;100.00;102204.66;4202302;28;20032;-79
2023/10/07 00:29:11;;;;;;;3.60;2.00;;;10.50;99.90;;;9.74;100.00;102201.41;4202096;28;20029;-78
2023/10/07 00:31:15;;;;;;;4.50;2.22;;;10.50;99.90;;;9.68;100.00;102201.84;4200989;28;20063;-78
2023/10/07 00:33:20;;;;;;;4.50;2.40;;;10.50;99.90;;;9.66;100.00;102197.66;4203750;28;20423;-78
2023/10/07 00:35:23;;;;;;;4.18;2.50;;;10.40;99.90;;;9.66;100.00;102206.41;4202200;28;20037;-79
2023/10/07 00:37:24;;;;;;;3.58;2.13;;;10.40;99.90;;;9.65;100.00;102206.50;4202219;28;20037;-79
2023/10/07 00:39:31;;;;;;;9.43;2.45;;;10.40;99.90;;;9.66;100.00;102201.13;4202155;28;20496;-78
2023/10/07 00:41:36;;;;;;;5.47;2.50;;;10.40;99.90;;;9.65;100.00;102210.00;4203458;28;20439;-79
2023/10/07 00:43:37;;;;;;;3.53;2.42;;;10.40;99.90;;;9.62;100.00;102215.47;4201674;28;20056;-78
2023/10/07 00:45:39;;;;;;;6.93;2.33;;;10.40;99.90;;;9.63;100.00;102219.81;4199806;28;20016;-78
2023/10/07 00:47:41;;;;;;;6.03;2.58;;;10.40;99.90;;;9.61;100.00;102211.19;4203361;28;20027;-78
2023/10/07 00:51:52;;;;;;;5.43;2.80;;;10.30;99.90;;;9.52;100.00;102217.13;4196835;28;20036;-79
2023/10/07 00:54:00;;;;;;;4.53;2.50;;;10.30;99.90;;;9.50;100.00;102218.22;4201710;28;20084;-79
2023/10/07 00:56:03;;;;;;;4.60;3.50;;;10.30;99.90;;;9.45;100.00;102215.91;4212447;28;20031;-79
2023/10/07 00:58:13;;;;;;;5.40;2.88;;;10.20;99.90;;;9.41;100.00;102212.66;4194925;28;20035;-79
2023/10/07 01:00:47;;;;;;;7.22;3.10;;;10.20;99.90;;;9.41;100.00;102224.97;4202696;28;20035;-79
2023/10/07 01:02:37;;;;;;;5.50;2.45;;;10.20;99.90;;;9.40;100.00;102218.03;4203003;28;20110;-79
2023/10/07 01:04:41;;;;;;;5.72;2.80;;;10.20;99.90;;;9.41;100.00;102224.97;4202951;28;20055;-79
2023/10/07 01:06:45;;;;;;;;;;;10.10;99.90;;;9.37;100.00;102226.16;4201760;28;20091;-79
2023/10/07 01:08:50;;;;;;;5.63;3.13;;;10.20;99.90;;;9.39;100.00;102227.72;4190886;28;19931;-79
2023/10/07 01:11:04;;;;;;;5.50;2.65;;;10.10;99.90;;;9.38;100.00;102227.81;4203053;28;20016;-78
2023/10/07 01:13:24;;;;;;;7.18;2.40;;;10.20;99.90;;;9.37;100.00;102226.16;4202895;28;20020;-79
2023/10/07 01:15:26;;;;;;;6.00;2.70;;;10.10;99.90;;;9.36;100.00;102227.94;4196880;28;20012;-79
2023/10/07 01:17:30;;;;;;;5.60;2.92;;;10.10;99.90;;;9.39;100.00;102221.63;4201201;28;20024;-79
2023/10/07 01:19:43;;;;;;;5.82;2.58;;;10.10;99.90;;;9.38;100.00;102220.78;4202732;28;20024;-79
2023/10/07 01:22:05;;;;;;;5.55;2.53;;;10.10;99.90;;;9.36;100.00;102211.31;4202536;28;20431;-78
2023/10/07 01:24:06;;;;;;;4.57;2.97;;;10.10;99.90;;;9.34;100.00;102214.06;4199413;28;20415;-79
2023/10/07 01:26:22;;;;;;;6.05;2.47;;;10.10;99.90;;;9.34;100.00;102202.69;4202427;28;20036;-79
2023/10/07 01:28:25;;;;;;;7.82;3.08;;;10.10;99.90;;;9.31;100.00;102195.00;4202538;28;20020;-79
2023/10/07 01:30:29;;;;;;;6.07;2.78;;;10.10;99.90;;;9.31;100.00;102197.66;4202233;28;20031;-79
2023/10/07 01:32:33;;;;;;;5.53;2.97;;;10.10;99.90;;;9.34;100.00;102197.41;4202560;28;20031;-79
2023/10/07 01:34:36;;;;;;;8.40;3.17;;;10.10;99.90;;;9.39;100.00;102192.66;4202369;28;20027;-79
2023/10/07 01:36:40;;;;;;;5.88;2.55;;;10.10;99.90;;;9.42;100.00;102187.16;4202253;28;20037;-79
2023/10/07 01:38:44;;;;;;;7.30;3.90;;;10.20;99.90;;;9.49;100.00;102200.72;4201088;28;20039;-78
2023/10/07 01:40:55;;;;;;;4.57;2.58;;;10.20;99.90;;;9.49;100.00;102185.75;4198974;28;20047;-79
2023/10/07 01:42:56;;;;;;;6.15;3.13;;;10.20;99.90;;;9.55;100.00;102193.22;4202557;28;20381;-79
2023/10/07 01:44:57;;;;;;;5.38;3.05;;;10.20;99.90;;;9.53;100.00;102187.19;4201944;28;20032;-79
2023/10/07 01:46:58;;;;;;;5.35;3.00;;;10.30;99.90;;;9.56;100.00;102186.97;4201666;28;20105;-78
2023/10/07 01:49:16;;;;;;;4.57;3.08;;;10.30;99.90;;;9.57;100.00;102186.03;4202175;28;20025;-79
2023/10/07 01:51:18;;;;;;;4.68;2.92;;;10.30;99.90;;;9.52;100.00;102180.25;4199537;28;20039;-79
2023/10/07 01:53:19;;;;;;;7.45;3.03;;;10.30;99.90;;;9.51;100.00;102175.09;4196191;28;20479;-79
2023/10/07 01:55:20;;;;;;;5.57;2.97;;;10.30;99.90;;;9.49;100.00;102177.00;4202218;28;20039;-79
2023/10/07 01:57:22;;;;;;;5.55;2.78;;;10.30;99.90;;;9.45;100.00;102169.34;4200460;28;20100;-79
2023/10/07 01:59:22;;;;;;;5.93;3.00;;;10.20;99.90;;;9.47;100.00;102177.09;4201924;28;20094;-79
2023/10/07 02:01:28;;;;;;;5.18;3.00;;;10.20;99.90;;;9.42;100.00;102168.72;4202116;28;20142;-79
2023/10/07 02:03:29;;;;;;;5.90;3.20;;;10.20;99.90;;;9.38;100.00;102161.97;4200970;28;20465;-79
2023/10/07 02:05:43;;;;;;;4.55;2.90;;;10.20;99.90;;;9.39;100.00;102163.69;4201035;28;20024;-79
2023/10/07 02:07:46;;;;;;;;;;;10.20;99.90;;;9.36;100.00;102166.53;4194429;28;20111;-79
2023/10/07 02:09:48;;;;;;;5.65;3.05;;;10.10;99.90;;;9.37;100.00;102160.31;4202094;28;20282;-79
2023/10/07 02:11:49;;;;;;;8.07;3.05;;;10.20;99.90;;;9.38;100.00;102159.34;4201909;28;20020;-79
2023/10/07 02:13:51;;;;;;;7.10;3.53;;;10.20;99.90;;;9.38;100.00;102154.94;4202084;28;20076;-79
2023/10/07 02:15:52;;;;;;;5.65;3.22;;;10.10;99.90;;;9.39;100.00;102161.03;4201634;28;20016;-78
2023/10/07 02:17:56;;;;;;;5.18;3.35;;;10.10;99.90;;;9.36;100.00;102159.47;4205559;28;20154;-79
2023/10/07 02:20:09;;;;;;;5.07;2.72;;;10.10;99.90;;;9.31;100.00;102156.34;4200448;28;20025;-79
2023/10/07 02:22:21;;;;;;;6.47;2.88;;;10.10;99.90;;;9.25;100.00;102150.69;4192002;28;20028;-78
2023/10/07 02:24:22;;;;;;;6.28;3.25;;;10.00;99.90;;;9.21;100.00;102154.50;4200350;28;20028;-79
2023/10/07 02:26:24;;;;;;;5.28;3.13;;;10.00;99.90;;;9.19;100.00;102151.16;4201745;28;20043;-79
2023/10/07 02:28:29;;;;;;;9.80;3.55;;;10.00;99.90;;;9.18;100.00;102154.72;4200502;28;20051;-79
2023/10/07 02:30:34;;;;;;;6.95;3.20;;;9.90;99.90;;;9.19;100.00;102161.69;4193187;28;20028;-79
2023/10/07 02:32:35;;;;;;;6.68;3.35;;;9.90;99.90;;;9.16;100.00;102160.13;4200514;28;20089;-78
2023/10/07 02:34:51;;;;;;;8.23;3.30;;;9.90;99.90;;;9.17;100.00;102155.69;4201766;28;20464;-78
2023/10/07 02:36:55;;;;;;;6.43;3.42;;;9.90;99.90;;;9.19;100.00;102154.63;4201859;28;20031;-79
2023/10/07 02:39:04;;;;;;;;;;;10.00;99.90;;;9.17;100.00;102150.44;4202157;28;20021;-79
2023/10/07 02:41:17;;;;;;;6.50;3.10;;;9.90;99.90;;;9.18;100.00;102144.19;4201377;28;19960;-79
2023/10/07 02:43:18;;;;;;;9.05;3.40;;;10.00;99.90;;;9.19;100.00;102145.88;4201760;28;20020;-78
2023/10/07 02:47:20;;;;;;;7.25;3.33;;;10.00;99.90;;;9.19;100.00;102145.88;4200660;28;20025;-79
2023/10/07 02:49:21;;;;;;;6.50;2.78;;;10.00;99.90;;;9.16;100.00;102138.22;4200291;28;20049;-78
2023/10/07 02:51:22;;;;;;;6.82;3.30;;;10.00;99.90;;;9.18;100.00;102145.03;4200588;28;20028;-78
2023/10/07 02:53:23;;;;;;;5.32;3.20;;;9.90;99.90;;;9.21;100.00;102141.34;4194655;28;20039;-78
2023/10/07 02:57:38;;;;;;;7.78;3.45;;;10.00;99.90;;;9.17;100.00;102145.16;4201734;28;20078;-78
2023/10/07 02:59:50;;;;;;;7.90;3.20;;;9.90;99.90;;;9.15;100.00;102139.16;4198591;28;20021;-79
2023/10/07 03:04:11;;;;;;;4.68;2.97;;;9.90;99.90;;;9.08;100.00;102141.38;4201719;28;20047;-78
2023/10/07 03:06:11;;;;;;;5.85;2.95;;;9.80;99.90;;;9.04;100.00;102141.75;4201444;28;20036;-78
2023/10/07 03:08:31;;;;;;;7.13;3.28;;;9.80;99.90;;;9.06;100.00;102145.09;4201580;28;20025;-79
2023/10/07 03:10:44;;;;;;;4.88;3.13;;;9.80;99.90;;;9.00;100.00;102146.38;4189074;28;20479;-79
2023/10/07 03:12:49;;;;;;;5.35;2.75;;;9.80;99.90;;;9.00;100.00;102153.44;4200208;28;20021;-79
2023/10/07 03:14:51;;;;;;;4.63;3.17;;;9.80;99.90;;;8.97;100.00;102161.53;4200179;28;20024;-78
2023/10/07 03:16:59;;;;;;;5.95;2.80;;;9.70;99.90;;;8.93;100.00;102158.28;4203664;28;20031;-79
2023/10/07 03:21:11;;;;;;;7.75;3.05;;;9.70;99.90;;;8.86;100.00;102162.34;4201339;28;20032;-78
2023/10/07 03:23:15;;;;;;;5.30;2.70;;;9.60;99.90;;;8.77;100.00;102152.47;4201246;28;20112;-79
2023/10/07 03:25:18;;;;;;;6.20;3.45;;;9.60;99.90;;;8.75;100.00;102165.72;4199824;28;20032;-78
2023/10/07 03:27:25;;;;;;;7.32;3.17;;;9.60;99.90;;;8.74;100.00;102164.06;4193949;28;20021;-78
2023/10/07 03:29:30;;;;;;;5.93;3.03;;;9.50;99.90;;;8.70;100.00;102165.22;4201019;28;20100;-78
2023/10/07 03:31:35;;;;;;;4.57;2.53;;;9.50;99.90;;;8.68;100.00;102161.03;4199733;28;20070;-78
2023/10/07 03:33:50;;;;;;;6.15;3.08;;;9.50;99.90;;;8.65;100.00;102155.97;4190772;28;20029;-78
2023/10/07 03:38:02;;;;;;;5.18;2.72;;;9.50;99.90;;;8.65;100.00;102162.09;4201205;28;20516;-78
2023/10/07 03:40:25;;;;;;;7.53;2.75;;;9.50;99.90;;;8.66;100.00;102169.00;4199380;28;20385;-78
2023/10/07 03:42:25;;;;;;;4.80;2.40;;;9.50;99.90;;;8.63;100.00;102155.25;4198119;28;20041;-79
2023/10/07 03:44:26;;;;;;;4.72;2.92;;;9.40;99.90;;;8.61;100.00;102157.97;4201135;28;20047;-78
2023/10/07 03:46:28;;;;;;;4.28;2.47;;;9.40;99.90;;;8.62;100.00;102156.19;4200172;28;20033;-78
2023/10/07 03:48:31;;;;;;;6.30;3.17;;;9.40;99.90;;;8.64;100.00;102157.75;4196379;28;20021;-78
2023/10/07 03:50:35;;;;;;;5.40;2.97;;;9.40;99.90;;;8.62;100.00;102151.78;4203521;28;20032;-78
2023/10/07 03:52:37;;;;;;;6.03;3.08;;;9.40;99.90;;;8.60;100.00;102144.94;4202862;28;20039;-78
2023/10/07 03:54:42;;;;;;;10.30;3.00;;;9.40;99.90;;;8.56;100.00;102149.59;4204172;28;20032;-78
2023/10/07 03:56:43;;;;;;;6.07;2.80;;;9.40;99.90;;;8.58;100.00;102158.19;4202648;28;20056;-78
2023/10/07 03:58:44;;;;;;;5.28;2.80;;;9.40;99.90;;;8.55;100.00;102153.16;4201947;28;20448;-78
2023/10/07 04:00:46;;;;;;;5.35;3.20;;;9.40;99.90;;;8.52;100.00;102148.09;4203609;28;20113;-78
2023/10/07 04:02:49;;;;;;;6.80;2.70;;;9.30;99.90;;;8.49;100.00;102148.31;4204079;28;20072;-79
2023/10/07 04:04:58;;;;;;;5.07;2.72;;;9.30;99.90;;;8.47;100.00;102163.38;4203911;28;20103;-78
2023/10/07 04:07:00;;;;;;;6.25;3.13;;;9.30;99.90;;;8.44;100.00;102155.69;4203825;28;20062;-79
2023/10/07 04:09:07;;;;;;;5.53;3.03;;;9.20;99.90;;;8.42;100.00;102157.63;4203989;28;20388;-79
2023/10/07 04:11:17;;;;;;;4.80;2.65;;;9.20;99.90;;;8.44;100.00;102158.34;4203898;28;20463;-78
2023/10/07 04:13:24;;;;;;;3.85;2.67;;;9.20;99.90;;;8.42;100.00;102160.25;4203802;28;20111;-78
2023/10/07 04:15:28;;;;;;;4.55;2.90;;;9.20;99.90;;;8.38;100.00;102166.66;4203376;28;20110;-78
2023/10/07 04:17:31;;;;;;;;;;;9.20;99.90;;;8.33;100.00;102156.44;4202887;28;20025;-79
2023/10/07 04:20:18;;;;;;;6.82;3.38;;;9.20;99.90;;;8.30;100.00;102163.72;4197820;28;19942;-79
2023/10/07 04:21:56;;;;;;;4.13;3.03;;;9.20;99.90;;;8.26;100.00;102159.59;4199779;28;20047;-79
2023/10/07 04:23:57;;;;;;;5.05;2.70;;;9.10;99.90;;;8.26;100.00;102167.47;4202645;28;20119;-79
2023/10/07 04:26:10;;;;;;;6.65;3.08;;;9.10;99.90;;;8.25;100.00;102163.16;4202696;28;20027;-79
2023/10/07 04:28:13;;;;;;;6.47;3.05;;;9.10;99.90;;;8.20;100.00;102163.47;4203754;28;20039;-78
2023/10/07 04:30:14;;;;;;;3.95;2.92;;;9.00;99.90;;;8.15;100.00;102160.31;4202463;28;20491;-79
2023/10/07 04:32:21;;;;;;;6.50;3.15;;;9.00;99.90;;;8.17;100.00;102161.06;4202282;28;20028;-79
2023/10/07 04:34:23;;;;;;;5.03;2.67;;;9.00;99.90;;;8.17;100.00;102161.06;4203476;28;20024;-79
2023/10/07 04:36:33;;;;;;;6.13;2.83;;;9.00;99.90;;;8.19;100.00;102153.06;4203335;28;20056;-79
2023/10/07 04:38:53;;;;;;;6.10;3.13;;;9.00;99.90;;;8.22;100.00;102158.09;4203099;28;20035;-79
2023/10/07 04:45:37;;;;;;;5.25;3.50;;;9.00;99.90;;;8.27;100.00;102151.59;4203269;28;20024;-78
2023/10/07 04:47:38;;;;;;;6.82;3.90;;;9.10;99.90;;;8.29;100.00;102146.25;4203455;28;20031;-78
2023/10/07 04:49:55;;;;;;;8.05;4.25;;;9.10;99.90;;;8.33;100.00;102153.00;4202150;28;20051;-79
2023/10/07 04:51:59;;;;;;;4.97;3.03;;;9.10;99.90;;;8.37;100.00;102150.97;4198585;28;20476;-78
2023/10/07 04:54:00;;;;;;;4.18;2.95;;;9.10;99.90;;;8.36;100.00;102149.31;4203144;28;20399;-78
2023/10/07 04:56:01;;;;;;;6.90;3.70;;;9.10;99.90;;;8.33;100.00;102145.91;4202088;28;20032;-79
2023/10/07 04:58:03;;;;;;;6.30;3.60;;;9.10;99.90;;;8.32;100.00;102143.41;4195508;28;20031;-79
2023/10/07 05:00:08;;;;;;;5.57;3.03;;;9.10;99.90;;;8.29;100.00;102133.97;4202793;28;20504;-78
2023/10/07 05:02:10;;;;;;;5.70;3.03;;;9.10;99.90;;;8.27;100.00;102135.00;4185147;28;20174;-79
2023/10/07 05:04:15;;;;;;;8.90;3.60;;;9.10;99.90;;;8.27;100.00;102140.25;4201909;28;20024;-78
2023/10/07 05:06:16;;;;;;;5.07;3.15;;;9.10;99.90;;;8.25;100.00;102136.88;4196576;28;20446;-78
2023/10/07 05:08:22;;;;;;;5.20;3.42;;;9.00;99.90;;;8.22;100.00;102137.91;4201921;28;20037;-78
2023/10/07 05:10:24;;;;;;;7.32;3.17;;;9.00;99.90;;;8.21;100.00;102141.47;4201911;28;20103;-78
2023/10/07 05:12:24;;;;;;;7.00;3.65;;;9.00;99.90;;;8.22;100.00;102143.19;4202913;28;20015;-78
2023/10/07 05:14:25;;;;;;;3.50;2.72;;;9.00;99.90;;;8.21;100.00;102140.66;4202724;28;20064;-79
2023/10/07 05:16:26;;;;;;;5.72;3.15;;;9.00;99.90;;;8.21;100.00;102135.41;4201668;28;20020;-79
2023/10/07 05:18:27;;;;;;;7.45;3.95;;;9.00;99.90;;;8.21;100.00;102138.03;4202562;28;20021;-79
2023/10/07 05:20:32;;;;;;;6.97;3.50;;;9.00;99.90;;;8.23;100.00;102138.75;4201779;28;20078;-79
2023/10/07 05:22:32;;;;;;;5.47;3.17;;;9.00;99.90;;;8.25;100.00;102142.13;4195381;28;20056;-79
2023/10/07 05:24:33;;;;;;;6.20;3.05;;;9.00;99.90;;;8.22;100.00;102145.81;4201563;28;20031;-79
2023/10/07 05:26:34;;;;;;;5.53;3.10;;;9.00;99.90;;;8.23;100.00;102138.75;4171947;28;20115;-79
2023/10/07 05:28:35;;;;;;;7.32;3.30;;;9.00;99.90;;;8.23;100.00;102144.88;4175075;28;20021;-78
2023/10/07 05:30:50;;;;;;;7.15;3.20;;;9.00;99.90;;;8.24;100.00;102145.72;4201158;28;20433;-78
2023/10/07 05:32:52;;;;;;;8.55;3.58;;;9.00;99.90;;;8.21;100.00;102148.56;4198790;28;20029;-78
2023/10/07 05:34:57;;;;;;;6.47;3.45;;;9.00;99.90;;;8.17;100.00;102142.66;4191574;28;20453;-78
2023/10/07 05:37:04;;;;;;;3.67;2.63;;;9.00;99.90;;;8.12;100.00;102146.56;4202565;28;20094;-79
2023/10/07 05:39:07;;;;;;;5.57;3.33;;;8.90;99.90;;;8.10;100.00;102151.06;4202433;28;20401;-79
2023/10/07 05:41:15;;;;;;;6.07;3.15;;;8.90;99.90;;;8.04;100.00;102139.19;4200844;28;20036;-79
2023/10/07 05:43:16;;;;;;;10.27;3.58;;;8.90;99.90;;;8.06;100.00;102153.09;4176420;28;20031;-79
2023/10/07 05:45:17;;;;;;;5.88;3.65;;;8.90;99.90;;;8.02;100.00;102156.00;4196659;28;20479;-79
2023/10/07 05:47:18;;;;;;;8.82;3.47;;;8.80;99.90;;;8.04;100.00;102160.22;4202237;28;20027;-79
2023/10/07 05:49:19;;;;;;;13.82;4.00;;;8.80;99.90;;;8.03;100.00;102162.97;4202530;28;20028;-79
2023/10/07 05:51:20;;;;;;;6.00;3.63;;;8.80;99.90;;;8.03;100.00;102162.97;4202318;28;20059;-79
2023/10/07 05:53:21;;;;;;;6.65;3.40;;;8.80;99.90;;;8.03;100.00;102174.31;4202192;28;20032;-79
2023/10/07 05:55:22;;;;;;;5.90;3.40;;;8.80;99.90;;;8.01;100.00;102168.31;4202071;28;20098;-79
2023/10/07 05:57:24;;;;;;;6.95;3.35;;;8.80;99.90;;;8.01;100.00;102170.09;4202282;28;20443;-79
2023/10/07 05:59:25;;;;;;;5.00;3.28;;;8.80;99.90;;;8.01;100.00;102180.59;4200711;28;20058;-79
2023/10/07 06:01:26;;;;;;;5.10;3.03;;;8.80;99.90;;;8.00;100.00;102168.44;4195402;28;20033;-79
2023/10/07 06:03:28;;;;;;;7.28;3.28;;;8.80;99.90;;;7.96;100.00;102172.19;4200184;28;20028;-79
2023/10/07 06:05:29;;;;;;;6.57;3.13;;;8.80;99.90;;;7.94;100.00;102174.09;4202191;28;20115;-79
2023/10/07 06:07:30;;;;;;;5.32;2.85;;;8.80;99.90;;;7.96;100.00;102188.81;4202168;28;20032;-78
2023/10/07 06:09:30;;;;;;;6.95;3.28;;;8.80;99.90;;;7.94;100.00;102187.22;4202175;28;20017;-79
2023/10/07 06:11:32;;;;;;;5.22;2.90;;;8.70;99.90;;;7.90;100.00;102189.22;4201397;28;20033;-79
2023/10/07 06:13:33;;;;;;;4.57;2.78;;;8.70;99.90;;;7.94;100.00;102195.13;4217567;28;20096;-79
2023/10/07 06:15:37;;;;;;;5.57;3.38;;;8.70;99.90;;;7.92;100.00;102196.97;4201830;28;20043;-79
2023/10/07 06:17:38;;;;;;;4.57;3.10;;;8.70;99.90;;;7.96;100.00;102207.19;4200919;28;20024;-79
2023/10/07 06:19:40;;;;;;;5.15;3.13;;;8.70;99.90;;;7.95;100.00;102196.78;4198551;28;20082;-79
2023/10/07 06:21:50;;;;;;;6.88;3.58;;;8.70;99.90;;;7.97;100.00;102205.41;4200903;28;20389;-79
2023/10/07 06:23:53;;;;;;;6.50;3.50;;;8.70;99.90;;;8.00;100.00;102203.44;4192294;28;20028;-79
2023/10/07 06:26:02;;;;;;;6.45;3.22;;;8.80;99.90;;;8.03;100.00;102205.84;4201954;28;20103;-79
2023/10/07 06:28:05;;;;;;;7.15;3.70;;;8.80;99.90;;;8.02;100.00;102201.53;4201827;28;20047;-79
2023/10/07 06:30:09;;;;;;;5.18;3.20;;;8.80;99.90;;;8.00;100.00;102210.47;4200454;28;20036;-78
2023/10/07 06:32:23;;;;;;;5.57;2.85;;;8.80;99.90;;;7.97;100.00;102206.28;4195077;28;20364;-79
2023/10/07 06:34:26;;;;;;;4.75;3.05;;;8.80;99.90;;;7.97;100.00;102205.41;4200294;28;20029;-79
2023/10/07 06:36:32;;;;;;;5.82;3.30;;;8.80;99.90;;;8.00;100.00;102206.06;4201686;28;20462;-79
2023/10/07 06:38:33;;;;;;;5.25;3.60;;;8.80;99.90;;;8.03;100.00;102221.63;4200190;28;20025;-79
2023/10/07 06:40:35;;;;;;;4.63;3.15;;;8.80;99.90;;;8.05;100.00;102218.88;4197049;28;20127;-79
2023/10/07 06:42:40;;;;;;;7.13;3.17;;;8.80;99.90;;;8.06;100.00;102216.16;4200343;28;20021;-79
2023/10/07 06:44:41;;;;;;;8.30;3.20;;;8.80;99.90;;;8.09;100.00;102220.38;4189425;28;20024;-79
2023/10/07 06:46:41;;;;;;;6.85;3.20;;;8.80;99.90;;;8.13;100.00;102232.31;4201832;28;20043;-79
2023/10/07 06:48:43;;;;;;;5.32;3.00;;;8.90;99.90;;;8.12;100.00;102228.03;4201654;28;20056;-79
2023/10/07 06:50:45;;;;;;;5.00;2.75;;;8.90;99.90;;;8.19;100.00;102231.91;4201733;28;20116;-79
2023/10/07 06:52:49;;;;;;;4.68;2.47;;;8.90;99.90;;;8.18;100.00;102230.25;4201754;28;20071;-79
2023/10/07 06:54:54;;;;;;;3.83;2.60;;;8.90;99.90;;;8.22;100.00;102242.22;4201669;28;20029;-79
2023/10/07 06:56:55;;;;;;;5.80;3.10;;;9.00;99.90;;;8.28;100.00;102249.72;4216875;28;20036;-79
2023/10/07 06:58:59;;;;;;;5.45;3.25;;;9.00;99.90;;;8.33;100.00;102250.28;4201170;28;20043;-79
2023/10/07 07:01:10;;;;;;;5.85;3.33;;;9.10;99.90;;;8.39;100.00;102247.22;4201410;28;20060;-79
2023/10/07 07:03:11;;;;;;;4.43;2.80;;;9.10;99.90;;;8.48;100.00;102249.22;4201599;28;20028;-79
2023/10/07 07:05:16;;;;;;;5.57;3.08;;;9.20;99.90;;;8.58;100.00;102241.50;4200396;28;20037;-78
2023/10/07 07:07:17;;;;;;;7.60;3.35;;;9.30;99.90;;;8.66;100.00;102241.84;4189987;28;20048;-79
2023/10/07 07:11:39;;;;;;;5.95;3.60;;;9.50;99.90;;;8.80;100.00;102242.56;4198779;28;20035;-79
2023/10/07 07:13:43;;;;;;;5.35;3.53;;;9.60;99.90;;;8.85;100.00;102235.16;4200414;28;20090;-79
2023/10/07 07:16:06;;;;;;;4.97;3.13;;;9.60;99.90;;;8.97;100.00;102240.50;4192769;28;20048;-79
2023/10/07 07:22:15;;;;;;;5.20;3.15;;;9.80;99.90;;;9.09;100.00;102244.91;4192271;28;20040;-78
2023/10/07 07:24:22;;;;;;;6.90;3.13;;;9.80;99.90;;;9.11;100.00;102248.28;4203946;28;20025;-77
2023/10/07 07:26:23;;;;;;;5.45;2.75;;;9.90;99.90;;;9.18;100.00;102244.22;4202540;28;20032;-78
2023/10/07 07:28:24;;;;;;;6.38;3.20;;;9.90;99.90;;;9.20;100.00;102245.81;4194633;28;20043;-79
2023/10/07 07:30:31;;;;;;;4.25;2.63;;;10.00;99.90;;;9.28;100.00;102254.00;4203182;28;20029;-78
2023/10/07 07:32:35;;;;;;;5.00;3.28;;;10.00;99.90;;;9.34;100.00;102250.94;4202043;28;20016;-78
2023/10/07 07:34:36;;;;;;;6.15;3.10;;;10.10;99.90;;;9.42;100.00;102253.84;4202651;28;20052;-78
2023/10/07 07:36:38;;;;;;;5.50;3.35;;;10.20;99.90;;;9.50;100.00;102257.72;4204330;28;20025;-78
2023/10/07 07:38:44;;;;;;;5.97;3.38;;;10.20;99.90;;;9.58;100.00;102260.63;4204594;28;20473;-78
2023/10/07 07:40:45;;;;;;;6.20;3.38;;;10.30;99.90;;;9.61;100.00;102248.06;4204285;28;20064;-80
2023/10/07 07:42:55;;;;;;;6.65;3.50;;;10.40;99.90;;;9.70;100.00;102260.56;4200808;28;20024;-80
2023/10/07 07:44:56;;;;;;;6.80;3.63;;;10.50;99.90;;;9.80;100.00;102265.97;4204089;28;20047;-79
2023/10/07 07:46:57;;;;;;;6.47;3.85;;;10.50;99.90;;;9.89;100.00;102274.03;4204262;28;20031;-80
2023/10/07 07:49:08;;;;;;;5.93;4.00;;;10.60;99.90;;;9.97;100.00;102273.50;4219590;28;20020;-80
2023/10/07 07:51:11;;;;;;;6.93;4.60;;;10.70;99.90;;;10.06;100.00;102274.59;4202052;28;20037;-80
2023/10/07 07:53:12;;;;;;;8.05;3.97;;;10.80;99.90;;;10.14;100.00;102273.09;4195958;28;20100;-80
2023/10/07 07:55:14;;;;;;;7.70;4.43;;;10.90;99.90;;;10.23;100.00;102271.56;4204172;28;20024;-79
2023/10/07 07:57:16;;;;;;;6.15;3.50;;;11.00;99.90;;;10.31;100.00;102272.63;4204009;28;20069;-79
2023/10/07 07:59:18;;;;;;;5.70;3.95;;;11.00;99.90;;;10.41;100.00;102275.41;4204072;28;20395;-80
2023/10/07 08:01:28;;;;;;;7.43;3.60;;;11.20;99.90;;;10.46;100.00;102262.72;4203965;28;20025;-79
2023/10/07 08:03:29;;;;;;;4.78;3.40;;;11.20;99.90;;;10.57;100.00;102265.38;4204039;28;20076;-79
2023/10/07 08:05:34;;;;;;;4.53;3.72;;;11.30;99.90;;;10.63;100.00;102269.34;4203914;28;20170;-79
2023/10/07 08:07:35;;;;;;;5.32;3.25;;;11.40;99.90;;;10.72;100.00;102263.34;4203843;28;20029;-77
2023/10/07 08:09:37;;;;;;;6.35;3.88;;;11.50;99.90;;;10.78;100.00;102268.97;4202627;28;20431;-79
2023/10/07 08:11:38;;;;;;;4.80;3.38;;;11.50;99.90;;;10.88;100.00;102275.22;4202892;28;20385;-76
2023/10/07 08:13:39;;;;;;;6.40;4.28;;;11.60;99.90;;;10.93;100.00;102266.94;4203679;28;20035;-78
2023/10/07 08:15:41;;;;;;;6.47;4.13;;;11.70;99.90;;;11.02;100.00;102274.94;4202397;28;20565;-79
2023/10/07 08:17:45;;;;;;;6.00;3.10;;;11.80;99.90;;;11.08;100.00;102266.53;4197303;28;20024;-78
2023/10/07 08:19:50;;;;;;;;;;;11.90;99.90;;;11.13;100.00;102270.63;4204143;28;20480;-79
2023/10/07 08:21:52;;;;;;;6.13;3.42;;;11.90;99.90;;;11.20;100.00;102263.91;4204166;28;20054;-79
2023/10/07 08:23:53;;;;;;;5.80;3.45;;;12.00;99.90;;;11.27;100.00;102259.78;4202432;28;20035;-80
2023/10/07 08:26:48;;;;;;;6.45;3.72;;;12.10;99.90;;;11.37;100.00;102261.59;4197917;28;20025;-80
2023/10/07 08:28:41;;;;;;;5.22;3.15;;;12.10;99.90;;;11.44;100.00;102262.75;4192097;28;20072;-80
2023/10/07 08:30:46;;;;;;;7.47;4.07;;;12.20;99.90;;;11.55;100.00;102267.19;4196060;28;20029;-80
2023/10/07 08:32:48;;;;;;;5.28;2.85;;;12.30;99.90;;;11.64;100.00;102263.78;4202166;28;20427;-80
2023/10/07 08:34:49;;;;;;;5.90;3.85;;;12.40;99.90;;;11.71;100.00;102262.31;4190869;28;20036;-80
2023/10/07 08:36:50;;;;;;;4.65;2.92;;;12.50;99.90;;;11.79;100.00;102251.97;4203597;28;20028;-80
2023/10/07 08:38:50;;;;;;;5.15;3.65;;;12.60;99.90;;;11.87;100.00;102253.97;4203526;28;20032;-80
2023/10/07 08:41:07;;;;;;;6.22;3.60;;;12.70;99.90;;;11.98;100.00;102264.50;4201959;28;20049;-79
2023/10/07 08:43:16;;;;;;;5.72;3.38;;;12.70;99.90;;;12.07;100.00;102251.34;4191996;28;20516;-79
2023/10/07 08:45:23;;;;;;;6.43;3.00;;;12.80;99.90;;;12.16;100.00;102258.50;4201550;28;20503;-80
2023/10/07 08:47:27;;;;;;;4.65;3.15;;;12.90;99.90;;;12.23;100.00;102252.69;4200088;28;20032;-80
2023/10/07 08:49:33;;;;;;;8.63;3.30;;;13.00;99.90;;;12.34;100.00;102261.41;4202173;28;20012;-80
2023/10/07 08:51:39;;;;;;;4.88;2.92;;;13.10;99.90;;;12.41;100.00;102253.78;4195796;28;20062;-80
2023/10/07 08:53:41;;;;;;;6.30;3.83;;;13.20;99.90;;;12.51;100.00;102254.69;4201955;28;20082;-79
2023/10/07 08:55:43;;;;;;;4.13;2.88;;;13.30;99.90;;;12.59;100.00;102258.34;4201968;28;20032;-79
2023/10/07 08:57:47;;;;;;;5.50;3.13;;;13.40;99.90;;;12.70;100.00;102252.09;4189800;28;20028;-79
2023/10/07 08:59:52;;;;;;;5.33;3.03;;;13.50;99.90;;;12.78;100.00;102257.59;4202353;28;20059;-79
2023/10/07 09:02:12;;;;;;;4.93;3.20;;;13.60;99.90;;;12.87;100.00;102258.59;4200707;28;20039;-80
2023/10/07 09:04:13;;;;;;;9.23;3.38;;;13.70;99.90;;;12.94;100.00;102257.91;4190213;28;20031;-80